createdAt,value
2023-02-07T00:00:26.876Z,74.09
2023-02-07T00:02:56.021Z,74.31
2023-02-07T00:05:22.567Z,75.15
2023-02-07T00:07:49.074Z,75.24
2023-02-07T00:10:15.922Z,74.96
2023-02-07T00:12:42.452Z,75.37
2023-02-07T00:15:09.427Z,75.82
2023-02-07T00:17:35.912Z,75.59
2023-02-07T00:20:02.496Z,75.54
2023-02-07T00:22:29.060Z,75.53
2023-02-07T00:24:55.477Z,75.26
2023-02-07T00:27:21.927Z,75.65
2023-02-07T00:29:48.376Z,75.88
2023-02-07T00:32:14.898Z,76.73
2023-02-07T00:34:42.115Z,76.70
2023-02-07T00:37:09.918Z,76.53
2023-02-07T00:39:38.394Z,76.26
2023-02-07T00:42:05.070Z,76.19
2023-02-07T00:44:32.890Z,76.05
2023-02-07T00:46:59.602Z,75.58
2023-02-07T00:49:26.154Z,76.04
2023-02-07T00:51:52.664Z,76.17
2023-02-07T00:54:19.379Z,75.97
2023-02-07T00:56:45.938Z,75.84
2023-02-07T00:59:12.445Z,75.75
2023-02-07T01:01:39.127Z,76.00
2023-02-07T01:04:05.888Z,76.81
2023-02-07T01:06:34.400Z,76.12
2023-02-07T01:09:01.938Z,75.83
2023-02-07T01:11:28.576Z,76.49
2023-02-07T01:13:55.100Z,76.08
2023-02-07T01:16:23.387Z,76.13
2023-02-07T01:18:50.152Z,75.88
2023-02-07T01:21:17.794Z,76.70
2023-02-07T01:23:44.292Z,76.64
2023-02-07T01:26:11.000Z,76.39
2023-02-07T01:28:37.794Z,76.52
2023-02-07T01:31:08.854Z,76.34
2023-02-07T01:33:36.047Z,76.06
2023-02-07T01:36:09.883Z,75.94
2023-02-07T01:38:36.388Z,76.46
2023-02-07T01:41:03.413Z,76.53
2023-02-07T01:43:30.222Z,75.97
2023-02-07T01:45:56.817Z,76.64
2023-02-07T01:48:31.670Z,76.87
2023-02-07T01:51:00.827Z,77.06
2023-02-07T01:53:29.275Z,76.78
2023-02-07T01:55:57.154Z,76.23
2023-02-07T01:58:23.745Z,76.06
2023-02-07T02:00:50.975Z,76.75
2023-02-07T02:03:17.662Z,76.27
2023-02-07T02:05:44.961Z,76.60
2023-02-07T02:08:11.476Z,77.22
2023-02-07T02:10:56.196Z,77.49
2023-02-07T02:13:35.258Z,77.30
2023-02-07T02:16:04.880Z,78.03
2023-02-07T02:18:43.619Z,77.64
2023-02-07T02:21:28.900Z,77.77
2023-02-07T02:24:04.448Z,77.49
2023-02-07T02:26:49.711Z,77.88
2023-02-07T02:29:35.059Z,77.65
2023-02-07T02:32:19.682Z,78.24
2023-02-07T02:34:55.254Z,77.84
2023-02-07T02:37:36.720Z,77.76
2023-02-07T02:40:07.935Z,77.35
2023-02-07T02:42:39.808Z,77.50
2023-02-07T02:45:18.501Z,77.13
2023-02-07T02:47:46.641Z,77.48
2023-02-07T02:50:14.198Z,77.74
2023-02-07T02:52:50.183Z,77.50
2023-02-07T02:55:18.993Z,77.94
2023-02-07T02:57:57.317Z,77.94
2023-02-07T03:00:42.147Z,78.46
2023-02-07T03:03:15.406Z,78.34
2023-02-07T03:06:00.824Z,78.31
2023-02-07T03:08:30.296Z,78.19
2023-02-07T03:10:56.890Z,78.25
2023-02-07T03:13:37.259Z,78.18
2023-02-07T03:16:24.030Z,78.66
2023-02-07T03:19:09.760Z,78.67
2023-02-07T03:21:38.838Z,78.73
2023-02-07T03:24:17.105Z,78.74
2023-02-07T03:26:45.029Z,79.35
2023-02-07T03:29:13.598Z,78.93
2023-02-07T03:31:42.347Z,79.05
2023-02-07T03:34:11.405Z,79.58
2023-02-07T03:37:04.662Z,79.44
2023-02-07T03:39:31.438Z,79.06
2023-02-07T03:42:18.144Z,79.22
2023-02-07T03:44:45.541Z,79.12
2023-02-07T03:47:12.095Z,79.43
2023-02-07T03:49:38.670Z,79.34
2023-02-07T03:52:05.164Z,79.85
2023-02-07T03:54:31.697Z,80.22
2023-02-07T03:56:58.271Z,79.94
2023-02-07T03:59:24.768Z,79.73
2023-02-07T04:01:51.405Z,79.78
2023-02-07T04:04:17.968Z,79.81
2023-02-07T04:06:44.505Z,79.72
2023-02-07T04:09:11.943Z,79.66
2023-02-07T04:11:38.560Z,79.81
2023-02-07T04:14:05.062Z,79.70
2023-02-07T04:16:31.532Z,78.98
2023-02-07T04:18:59.951Z,78.69
2023-02-07T04:21:26.541Z,78.92
2023-02-07T04:23:52.990Z,78.80
2023-02-07T04:26:19.480Z,77.97
2023-02-07T04:28:45.981Z,77.95
2023-02-07T04:31:12.485Z,77.61
2023-02-07T04:33:39.037Z,77.83
2023-02-07T04:36:06.672Z,77.40
2023-02-07T04:38:33.204Z,77.64
2023-02-07T04:41:00.654Z,78.24
2023-02-07T04:43:27.118Z,77.61
2023-02-07T04:45:53.617Z,77.60
2023-02-07T04:48:20.184Z,77.72
2023-02-07T04:50:46.726Z,78.83
2023-02-07T04:53:13.277Z,78.86
2023-02-07T04:57:16.458Z,80.33
2023-02-07T04:59:42.941Z,81.53
2023-02-07T05:02:09.659Z,80.99
2023-02-07T05:04:36.423Z,81.13
2023-02-07T05:07:03.241Z,82.05
2023-02-07T05:09:29.752Z,81.56
2023-02-07T05:11:56.264Z,81.28
2023-02-07T05:14:22.843Z,81.02
2023-02-07T05:16:49.317Z,81.46
2023-02-07T05:19:15.808Z,82.12
2023-02-07T05:21:42.257Z,82.67
2023-02-07T05:24:08.771Z,82.95
2023-02-07T05:26:35.318Z,83.26
2023-02-07T05:29:01.824Z,82.90
2023-02-07T05:31:48.380Z,82.75
2023-02-07T05:34:14.943Z,83.30
2023-02-07T05:36:41.748Z,83.02
2023-02-07T05:39:08.288Z,82.31
2023-02-07T05:41:34.758Z,81.87
2023-02-07T05:44:01.284Z,81.26
2023-02-07T05:46:27.779Z,81.02
2023-02-07T05:48:54.254Z,81.13
2023-02-07T05:51:20.778Z,80.96
2023-02-07T05:53:47.273Z,79.75
2023-02-07T05:56:13.783Z,79.58
2023-02-07T05:58:40.254Z,79.07
2023-02-07T06:01:06.736Z,78.26
2023-02-07T06:03:33.351Z,77.47
2023-02-07T06:05:59.842Z,77.98
2023-02-07T06:08:26.365Z,78.02
2023-02-07T06:10:52.918Z,77.38
2023-02-07T06:13:19.412Z,77.21
2023-02-07T06:15:45.976Z,76.34
2023-02-07T06:18:12.465Z,75.48
2023-02-07T06:20:38.964Z,75.25
2023-02-07T06:23:05.540Z,75.26
2023-02-07T06:25:32.016Z,76.24
2023-02-07T06:27:58.577Z,75.99
2023-02-07T06:30:25.138Z,75.26
2023-02-07T06:32:51.590Z,75.60
2023-02-07T06:35:18.169Z,74.64
2023-02-07T06:37:44.624Z,75.22
2023-02-07T06:40:11.292Z,75.02
2023-02-07T06:42:37.796Z,75.33
2023-02-07T06:45:04.457Z,74.84
2023-02-07T06:47:30.916Z,74.47
2023-02-07T06:49:57.413Z,74.11
2023-02-07T06:52:23.930Z,73.22
2023-02-07T06:54:50.475Z,73.42
2023-02-07T06:57:17.155Z,73.30
2023-02-07T06:59:43.692Z,73.04
2023-02-07T07:02:11.079Z,72.56
2023-02-07T07:04:37.546Z,72.16
2023-02-07T07:07:04.035Z,70.66
2023-02-07T07:09:30.534Z,71.23
2023-02-07T07:11:57.107Z,69.80
2023-02-07T07:14:23.623Z,69.19
2023-02-07T07:16:50.173Z,69.01
2023-02-07T07:19:16.715Z,67.09
2023-02-07T07:21:43.222Z,67.12
2023-02-07T07:24:09.732Z,66.96
2023-02-07T07:26:48.333Z,65.68
2023-02-07T07:29:15.892Z,65.27
2023-02-07T07:34:26.169Z,61.35
2023-02-07T07:36:56.685Z,59.19
2023-02-07T07:39:23.685Z,58.16
2023-02-07T07:41:50.203Z,58.78
2023-02-07T07:44:16.687Z,55.79
2023-02-07T07:46:43.223Z,56.10
2023-02-07T07:49:09.696Z,53.33
2023-02-07T07:51:36.205Z,51.04
2023-02-07T07:54:02.662Z,50.17
2023-02-07T07:56:32.845Z,50.59
2023-02-07T07:59:01.502Z,50.46
2023-02-07T08:01:29.724Z,49.31
2023-02-07T08:03:56.217Z,49.13
2023-02-07T08:06:22.745Z,48.76
2023-02-07T08:08:49.228Z,48.77
2023-02-07T08:11:15.719Z,48.02
2023-02-07T08:13:42.405Z,46.54
2023-02-07T08:16:09.071Z,46.09
2023-02-07T08:18:35.612Z,47.79
2023-02-07T08:21:02.215Z,47.32
2023-02-07T08:23:28.968Z,46.88
2023-02-07T08:25:55.536Z,46.32
2023-02-07T08:28:22.511Z,46.24
2023-02-07T08:30:49.102Z,44.96
2023-02-07T08:33:15.909Z,45.22
2023-02-07T08:35:42.656Z,44.98
2023-02-07T08:38:09.195Z,44.90
2023-02-07T08:40:36.717Z,44.98
2023-02-07T08:43:06.993Z,45.90
2023-02-07T08:45:33.697Z,45.15
2023-02-07T08:48:00.239Z,45.33
2023-02-07T08:50:26.911Z,44.10
2023-02-07T08:52:53.402Z,44.21
2023-02-07T08:55:19.991Z,44.42
2023-02-07T08:57:46.483Z,44.85
2023-02-07T09:00:13.310Z,46.11
2023-02-07T09:02:40.128Z,44.49
2023-02-07T09:05:06.818Z,44.21
2023-02-07T09:07:33.307Z,44.47
2023-02-07T09:09:59.872Z,44.31
2023-02-07T09:12:26.354Z,45.09
2023-02-07T09:14:52.805Z,43.52
2023-02-07T09:17:19.294Z,43.49
2023-02-07T09:19:45.762Z,44.48
2023-02-07T09:22:12.287Z,45.05
2023-02-07T09:24:38.777Z,44.42
2023-02-07T09:27:05.288Z,43.75
2023-02-07T09:29:31.836Z,43.06
2023-02-07T09:31:58.711Z,43.02
2023-02-07T09:34:25.421Z,43.87
2023-02-07T09:36:51.999Z,42.58
2023-02-07T09:39:18.495Z,43.04
2023-02-07T09:41:48.017Z,43.10
2023-02-07T09:44:20.596Z,43.55
2023-02-07T09:47:07.392Z,43.09
2023-02-07T09:49:39.231Z,43.36
2023-02-07T09:52:09.622Z,42.51
2023-02-07T09:54:39.602Z,42.51
2023-02-07T09:57:14.666Z,43.72
2023-02-07T09:59:59.795Z,43.69
2023-02-07T10:02:41.491Z,43.45
2023-02-07T10:05:18.834Z,43.51
2023-02-07T10:07:46.544Z,43.49
2023-02-07T10:10:21.944Z,44.53
2023-02-07T10:12:48.431Z,44.85
2023-02-07T10:15:33.738Z,43.57
2023-02-07T10:18:09.169Z,44.31
2023-02-07T10:20:48.428Z,44.82
2023-02-07T10:23:38.142Z,44.78
2023-02-07T10:26:11.815Z,45.75
2023-02-07T10:28:47.589Z,45.08
2023-02-07T10:31:16.907Z,45.00
2023-02-07T10:33:47.425Z,44.73
2023-02-07T10:36:14.966Z,44.02
2023-02-07T10:38:48.845Z,44.22
2023-02-07T10:41:20.940Z,44.12
2023-02-07T10:43:47.719Z,42.55
2023-02-07T10:46:20.479Z,43.30
2023-02-07T10:48:48.402Z,43.78
2023-02-07T10:51:34.675Z,44.88
2023-02-07T10:54:09.938Z,44.78
2023-02-07T10:57:01.686Z,45.05
2023-02-07T10:59:35.534Z,43.75
2023-02-07T11:02:03.542Z,44.32
2023-02-07T11:04:37.527Z,45.68
2023-02-07T11:07:05.832Z,44.57
2023-02-07T11:09:37.221Z,45.40
2023-02-07T11:12:13.612Z,43.88
2023-02-07T11:14:48.590Z,44.23
2023-02-07T11:17:21.714Z,44.96
2023-02-07T11:19:48.246Z,45.43
2023-02-07T11:22:18.659Z,43.43
2023-02-07T11:24:46.023Z,43.45
2023-02-07T11:27:19.784Z,43.43
2023-02-07T11:29:51.782Z,43.76
2023-02-07T11:32:18.963Z,43.68
2023-02-07T11:34:46.146Z,44.48
2023-02-07T11:37:25.033Z,44.16
2023-02-07T11:39:52.988Z,44.11
2023-02-07T11:42:30.323Z,42.25
2023-02-07T11:44:56.867Z,43.31
2023-02-07T11:47:28.661Z,42.72
2023-02-07T11:49:59.488Z,43.44
2023-02-07T11:52:26.278Z,43.42
2023-02-07T11:55:00.567Z,43.04
2023-02-07T11:57:31.608Z,42.09
2023-02-07T12:00:17.292Z,41.98
2023-02-07T12:02:51.644Z,40.93
2023-02-07T12:05:18.441Z,41.96
2023-02-07T12:07:58.850Z,41.13
2023-02-07T12:10:28.786Z,42.79
2023-02-07T12:13:07.622Z,42.29
2023-02-07T12:15:37.434Z,42.79
2023-02-07T12:18:10.031Z,41.99
2023-02-07T12:20:55.341Z,41.78
2023-02-07T12:23:42.641Z,40.57
2023-02-07T12:26:24.628Z,40.91
2023-02-07T12:29:13.670Z,41.29
2023-02-07T12:32:09.994Z,41.55
2023-02-07T12:34:41.765Z,41.17
2023-02-07T12:37:19.224Z,41.80
2023-02-07T12:39:52.821Z,40.58
2023-02-07T12:42:38.307Z,41.80
2023-02-07T12:45:05.922Z,41.54
2023-02-07T12:47:32.406Z,42.32
2023-02-07T12:50:17.789Z,41.15
2023-02-07T12:52:50.373Z,41.24
2023-02-07T12:55:34.076Z,41.49
2023-02-07T12:58:00.712Z,41.83
2023-02-07T13:00:42.805Z,41.43
2023-02-07T13:03:21.574Z,41.89
2023-02-07T13:05:58.742Z,41.08
2023-02-07T13:08:25.273Z,41.37
2023-02-07T13:10:56.759Z,40.49
2023-02-07T13:13:38.238Z,39.75
2023-02-07T13:16:13.614Z,40.76
2023-02-07T13:18:46.361Z,40.58
2023-02-07T13:21:23.521Z,40.25
2023-02-07T13:23:50.438Z,40.95
2023-02-07T13:26:26.334Z,40.43
2023-02-07T13:28:57.580Z,40.79
2023-02-07T13:31:36.301Z,40.21
2023-02-07T13:34:03.519Z,40.83
2023-02-07T13:36:42.119Z,40.83
2023-02-07T13:39:20.905Z,40.76
2023-02-07T13:42:08.067Z,40.77
2023-02-07T13:44:34.557Z,39.88
2023-02-07T13:47:04.816Z,40.09
2023-02-07T13:49:31.255Z,38.82
2023-02-07T13:52:10.894Z,39.99
2023-02-07T13:54:40.403Z,39.89
2023-02-07T13:57:37.116Z,39.71
2023-02-07T14:00:12.609Z,39.72
2023-02-07T14:02:51.795Z,40.38
2023-02-07T14:05:23.090Z,40.58
2023-02-07T14:07:56.133Z,39.88
2023-02-07T14:10:49.154Z,40.19
2023-02-07T14:13:29.518Z,40.30
2023-02-07T14:15:58.850Z,40.02
2023-02-07T14:18:37.115Z,40.95
2023-02-07T14:21:05.373Z,39.96
2023-02-07T14:23:59.130Z,39.72
2023-02-07T14:26:37.717Z,40.97
2023-02-07T14:29:27.123Z,40.40
2023-02-07T14:32:00.903Z,40.23
2023-02-07T14:34:31.882Z,40.12
2023-02-07T14:37:00.554Z,40.52
2023-02-07T14:39:31.608Z,41.08
2023-02-07T14:42:11.391Z,40.48
2023-02-07T14:44:39.825Z,41.19
2023-02-07T14:47:08.465Z,41.72
2023-02-07T14:49:49.713Z,41.23
2023-02-07T14:52:34.089Z,41.63
2023-02-07T14:55:02.063Z,41.85
2023-02-07T14:57:28.499Z,42.27
2023-02-07T15:00:04.994Z,42.10
2023-02-07T15:02:39.640Z,42.92
2023-02-07T15:05:24.655Z,42.34
2023-02-07T15:08:03.383Z,41.76
2023-02-07T15:10:31.602Z,43.10
2023-02-07T15:12:58.354Z,42.59
2023-02-07T15:15:43.980Z,42.68
2023-02-07T15:18:13.913Z,43.08
2023-02-07T15:20:40.842Z,42.95
2023-02-07T15:23:14.208Z,43.23
2023-02-07T15:25:41.743Z,43.06
2023-02-07T15:28:27.712Z,43.69
2023-02-07T15:30:58.586Z,43.59
2023-02-07T15:33:26.522Z,43.75
2023-02-07T15:35:52.979Z,43.30
2023-02-07T15:38:27.736Z,43.80
2023-02-07T15:40:55.366Z,43.80
2023-02-07T15:43:25.014Z,43.09
2023-02-07T15:46:02.371Z,43.58
2023-02-07T15:48:28.948Z,44.22
2023-02-07T15:50:56.844Z,43.87
2023-02-07T15:53:26.419Z,44.75
2023-02-07T15:55:53.570Z,44.92
2023-02-07T15:58:27.707Z,45.15
2023-02-07T16:00:58.949Z,45.49
2023-02-07T16:03:30.984Z,45.37
2023-02-07T16:06:02.348Z,44.75
2023-02-07T16:08:37.587Z,44.91
2023-02-07T16:11:16.246Z,45.74
2023-02-07T16:13:45.782Z,45.88
2023-02-07T16:16:19.782Z,45.27
2023-02-07T16:18:47.074Z,45.48
2023-02-07T16:21:21.260Z,46.14
2023-02-07T16:23:49.021Z,45.47
2023-02-07T16:26:17.719Z,45.73
2023-02-07T16:28:45.441Z,46.21
2023-02-07T16:31:12.233Z,46.23
2023-02-07T16:33:39.940Z,46.27
2023-02-07T16:36:06.899Z,46.36
2023-02-07T16:38:33.398Z,46.82
2023-02-07T16:41:00.291Z,47.60
2023-02-07T16:43:33.706Z,47.05
2023-02-07T16:46:01.422Z,47.79
2023-02-07T16:48:27.984Z,48.78
2023-02-07T16:50:54.527Z,47.51
2023-02-07T16:53:21.213Z,47.94
2023-02-07T16:55:47.678Z,48.22
2023-02-07T16:58:20.265Z,48.31
2023-02-07T17:00:46.787Z,49.14
2023-02-07T17:03:15.241Z,48.24
2023-02-07T17:05:41.753Z,49.34
2023-02-07T17:08:16.757Z,48.79
2023-02-07T17:10:46.606Z,48.74
2023-02-07T17:13:13.101Z,49.25
2023-02-07T17:15:39.607Z,49.58
2023-02-07T17:18:06.109Z,50.55
2023-02-07T17:20:34.262Z,51.27
2023-02-07T17:23:00.785Z,51.45
2023-02-07T17:25:29.438Z,51.75
2023-02-07T17:27:57.015Z,52.11
2023-02-07T17:30:28.337Z,51.92
2023-02-07T17:32:56.265Z,51.58
2023-02-07T17:35:23.477Z,52.78
2023-02-07T17:37:50.028Z,52.39
2023-02-07T17:40:16.537Z,52.61
2023-02-07T17:42:42.993Z,52.78
2023-02-07T17:45:09.555Z,52.97
2023-02-07T17:47:37.379Z,52.97
2023-02-07T17:50:04.629Z,53.12
2023-02-07T17:52:31.167Z,53.53
2023-02-07T17:54:57.674Z,54.33
2023-02-07T17:57:24.202Z,53.79
2023-02-07T17:59:50.842Z,54.80
2023-02-07T18:02:17.368Z,54.04
2023-02-07T18:04:44.214Z,54.82
2023-02-07T18:07:10.875Z,54.75
2023-02-07T18:09:37.333Z,53.83
2023-02-07T18:12:05.811Z,53.54
2023-02-07T18:14:32.391Z,53.65
2023-02-07T18:16:58.949Z,53.64
2023-02-07T18:19:25.525Z,54.17
2023-02-07T18:21:52.016Z,55.84
2023-02-07T18:24:18.824Z,55.82
2023-02-07T18:26:46.391Z,55.61
2023-02-07T18:29:12.985Z,55.27
2023-02-07T18:31:39.756Z,54.55
2023-02-07T18:34:06.321Z,55.17
2023-02-07T18:36:40.274Z,54.90
2023-02-07T18:39:07.575Z,54.20
2023-02-07T18:41:34.540Z,55.08
2023-02-07T18:44:02.833Z,56.06
2023-02-07T18:46:30.068Z,56.30
2023-02-07T18:48:56.937Z,55.67
2023-02-07T18:51:23.615Z,56.21
2023-02-07T18:53:55.022Z,55.05
2023-02-07T18:56:25.906Z,56.16
2023-02-07T18:58:59.037Z,55.72
2023-02-07T19:01:27.892Z,55.69
2023-02-07T19:03:55.243Z,55.83
2023-02-07T19:06:22.876Z,55.48
2023-02-07T19:08:49.831Z,55.43
2023-02-07T19:11:16.590Z,56.05
2023-02-07T19:13:43.666Z,56.82
2023-02-07T19:16:15.152Z,56.35
2023-02-07T19:18:41.762Z,57.65
2023-02-07T19:21:13.036Z,58.36
2023-02-07T19:23:40.268Z,58.88
2023-02-07T19:26:07.511Z,58.61
2023-02-07T19:28:34.747Z,59.83
2023-02-07T19:31:08.420Z,60.47
2023-02-07T19:33:35.350Z,61.43
2023-02-07T19:36:08.937Z,60.82
2023-02-07T19:38:35.614Z,61.00
2023-02-07T19:41:02.905Z,61.53
2023-02-07T19:43:29.989Z,62.76
2023-02-07T19:45:56.597Z,62.10
2023-02-07T19:48:23.149Z,62.07
2023-02-07T19:50:59.925Z,62.45
2023-02-07T19:53:26.817Z,62.49
2023-02-07T19:55:55.418Z,62.79
2023-02-07T19:58:22.037Z,62.03
2023-02-07T20:00:48.617Z,62.86
2023-02-07T20:03:15.094Z,62.51
2023-02-07T20:05:45.294Z,62.94
2023-02-07T20:08:12.392Z,62.75
2023-02-07T20:10:42.856Z,63.66
2023-02-07T20:13:12.027Z,63.74
2023-02-07T20:15:39.688Z,63.87
2023-02-07T20:18:06.355Z,64.08
2023-02-07T20:20:32.979Z,64.29
2023-02-07T20:22:59.578Z,64.33
2023-02-07T20:25:30.240Z,64.09
2023-02-07T20:27:56.827Z,64.36
2023-02-07T20:30:23.312Z,63.47
2023-02-07T20:32:51.163Z,64.27
2023-02-07T20:35:17.654Z,63.81
2023-02-07T20:37:44.247Z,63.93
2023-02-07T20:40:11.035Z,64.46
2023-02-07T20:42:37.540Z,64.36
2023-02-07T20:45:04.463Z,65.41
2023-02-07T20:47:30.984Z,64.67
2023-02-07T20:49:57.893Z,65.16
2023-02-07T20:52:24.661Z,65.16
2023-02-07T20:54:51.117Z,65.28
2023-02-07T20:57:17.725Z,65.07
2023-02-07T20:59:44.363Z,65.32
2023-02-07T21:02:11.117Z,65.00
2023-02-07T21:04:38.114Z,65.56
2023-02-07T21:07:05.200Z,65.93
2023-02-07T21:09:32.170Z,66.19
2023-02-07T21:11:58.939Z,65.82
2023-02-07T21:14:26.747Z,65.85
2023-02-07T21:16:54.082Z,66.27
2023-02-07T21:19:21.728Z,66.16
2023-02-07T21:21:48.371Z,66.52
2023-02-07T21:24:15.034Z,66.02
2023-02-07T21:26:41.878Z,67.21
2023-02-07T21:29:08.490Z,67.33
2023-02-07T21:31:36.210Z,67.11
2023-02-07T21:34:03.575Z,67.57
2023-02-07T21:36:31.673Z,67.62
2023-02-07T21:38:59.462Z,68.11
2023-02-07T21:41:27.354Z,68.03
2023-02-07T21:43:54.963Z,68.38
2023-02-07T21:46:22.997Z,67.96
2023-02-07T21:48:51.180Z,69.02
2023-02-07T21:51:21.878Z,69.02
2023-02-07T21:53:49.364Z,69.71
2023-02-07T21:56:16.942Z,69.35
2023-02-07T21:58:43.944Z,68.66
2023-02-07T22:01:17.882Z,68.72
2023-02-07T22:03:46.870Z,68.94
2023-02-07T22:06:14.137Z,68.85
2023-02-07T22:08:45.284Z,68.36
2023-02-07T22:11:11.902Z,68.64
2023-02-07T22:13:40.164Z,69.17
2023-02-07T22:16:10.387Z,68.97
2023-02-07T22:18:36.913Z,69.72
2023-02-07T22:21:23.660Z,70.71
2023-02-07T22:23:50.750Z,71.50
2023-02-07T22:26:18.022Z,71.37
2023-02-07T22:28:45.077Z,71.25
2023-02-07T22:31:12.803Z,70.86
2023-02-07T22:33:39.379Z,70.21
2023-02-07T22:36:10.997Z,69.79
2023-02-07T22:38:37.474Z,70.04
2023-02-07T22:41:04.553Z,69.80
2023-02-07T22:43:31.565Z,69.44
2023-02-07T22:45:58.025Z,69.72
2023-02-07T22:48:24.512Z,69.63
2023-02-07T22:50:51.286Z,69.58
2023-02-07T22:53:17.827Z,69.61
2023-02-07T22:55:44.328Z,70.07
2023-02-07T22:58:13.629Z,69.82
2023-02-07T23:00:40.479Z,70.09
2023-02-07T23:03:07.098Z,70.87
2023-02-07T23:05:36.595Z,71.17
2023-02-07T23:08:03.102Z,71.71
2023-02-07T23:10:29.645Z,71.95
2023-02-07T23:12:56.095Z,71.48
2023-02-07T23:15:23.273Z,71.55
2023-02-07T23:17:49.805Z,71.81
2023-02-07T23:20:16.375Z,71.60
2023-02-07T23:22:42.841Z,71.91
2023-02-07T23:25:11.098Z,71.85
2023-02-07T23:27:37.611Z,72.42
2023-02-07T23:30:04.135Z,71.84
2023-02-07T23:32:30.599Z,70.81
2023-02-07T23:34:57.189Z,70.80
2023-02-07T23:37:23.837Z,70.63
2023-02-07T23:39:50.319Z,71.01
2023-02-07T23:42:16.856Z,70.46
2023-02-07T23:44:43.299Z,70.45
2023-02-07T23:47:09.852Z,70.63
2023-02-07T23:49:36.492Z,70.87
2023-02-07T23:52:02.999Z,70.55
2023-02-07T23:54:29.480Z,70.79
2023-02-07T23:56:55.955Z,71.03
2023-02-07T23:59:22.620Z,70.91
